This is the latest recevied weather packets stored in our database for station/object W4CAT-13. If no packets are shown the sender has not sent any weather packets the latest 10 day(s).
| Time | Temp. | Humidity | Pressure | Rain* | Wind** | Luminosity | Snow |
|---|---|---|---|---|---|---|---|
| 1778227688 | 10° C | 50% | 979 hPa | 0 mm | - | - | - |
| 1778226788 | 10.56° C | 48% | 979 hPa | 0 mm | - | - | - |
| 1778225888 | 10.56° C | 49% | 979 hPa | 0 mm | - | - | - |
| 1778224988 | 10.56° C | 50% | 979.3 hPa | 0 mm | - | - | - |
| 1778224088 | 10.56° C | 52% | 979.3 hPa | 0 mm | - | - | - |
| 1778223188 | 10.56° C | 52% | 979.3 hPa | 0 mm | - | - | - |
| 1778222288 | 10.56° C | 53% | 979.3 hPa | 0 mm | - | - | - |
| 1778221358 | 10° C | 55% | 979.3 hPa | 0 mm | - | - | - |
| 1778220457 | 10.56° C | 55% | 979.3 hPa | 0 mm | - | - | - |
| 1778219558 | 9.44° C | 61% | 979.7 hPa | 0 mm | - | - | - |
| 1778218627 | 10° C | 58% | 979.4 hPa | 0 mm | - | - | - |
| 1778217727 | 10° C | 62% | 979.3 hPa | 0 mm | - | - | - |
| 1778216827 | 10° C | 62% | 979.3 hPa | 0 mm | - | - | - |
| 1778215928 | 10° C | 64% | 979.3 hPa | 0 mm | - | - | - |
| 1778215028 | 10.56° C | 56% | 979.7 hPa | 0 mm | - | - | - |
| 1778214127 | 10.56° C | 61% | 979.7 hPa | 0 mm | - | - | - |
| 1778213227 | 10° C | 58% | 979.7 hPa | 0 mm | - | - | - |
| 1778212297 | 10.56° C | 61% | 979.7 hPa | 0 mm | - | - | - |
| 1778211397 | 10.56° C | 61% | 979.7 hPa | 0 mm | - | - | - |
| 1778210497 | 10.56° C | 59% | 979.3 hPa | 0 mm | - | - | - |
| 1778209597 | 10.56° C | 62% | 979.3 hPa | 0 mm | - | - | - |
| 1778208697 | 11.11° C | 61% | 979 hPa | 0 mm | - | - | - |
| 1778207797 | 11.11° C | 60% | 979.3 hPa | 0 mm | - | - | - |
| 1778206897 | 11.67° C | 57% | 979.3 hPa | 0 mm | - | - | - |
| 1778205997 | 12.22° C | 53% | 979 hPa | 0 mm | - | - | - |
* Rain latest hour (hover to see other rain measurements)
** Current wind speed in m/s (hover to see current wind gust speed)